Time;durP1;ratioP1;P1;durP2;ratioP2;P2;SDS_P1;SDS_P2;PMS_P1;PMS_P2;Temp;Humidity;BMP_temperature;BMP_pressure;BME280_temperature;BME280_humidity;BME280_pressure;Samples;Min_cycle;Max_cycle;Signal;HPM_P1;HPM_P2
2022/11/18 00:01:17;;;;;;;5.77;1.80;;;8.20;99.90;;;;;;6156203;23;20149;-47
2022/11/18 00:03:44;;;;;;;3.03;2.00;;;8.20;99.90;;;;;;6156165;23;20229;-49
2022/11/18 00:06:15;;;;;;;8.07;2.00;;;8.20;99.90;;;;;;6156124;23;20592;-48
2022/11/18 00:08:41;;;;;;;3.30;1.70;;;8.20;99.90;;;;;;6156402;23;20639;-48
2022/11/18 00:11:09;;;;;;;11.67;2.10;;;8.20;99.90;;;;;;6156076;23;20153;-49
2022/11/18 00:16:20;;;;;;;5.90;2.03;;;8.30;99.90;;;;;;6156508;23;20192;-47
2022/11/18 00:18:46;;;;;;;5.87;1.80;;;8.30;99.90;;;;;;6156209;23;20213;-49
2022/11/18 00:21:11;;;;;;;7.97;1.90;;;8.30;99.90;;;;;;6156318;23;20154;-49
2022/11/18 00:23:38;;;;;;;4.47;1.73;;;8.30;99.90;;;;;;6156388;23;20180;-48
2022/11/18 00:26:11;;;;;;;4.93;2.10;;;8.30;99.90;;;;;;6156646;23;20576;-47
2022/11/18 00:28:37;;;;;;;4.33;1.80;;;8.30;99.90;;;;;;6156031;23;20224;-47
2022/11/18 00:31:11;;;;;;;4.97;1.90;;;8.40;99.90;;;;;;6155854;23;20503;-49
2022/11/18 00:33:38;;;;;;;8.63;3.10;;;8.40;99.90;;;;;;6156235;23;20157;-48
2022/11/18 00:36:08;;;;;;;4.67;2.10;;;8.30;99.90;;;;;;6156314;23;20165;-48
2022/11/18 00:38:34;;;;;;;3.80;1.83;;;8.30;99.90;;;;;;6155761;23;20178;-47
2022/11/18 00:41:06;;;;;;;7.33;2.40;;;8.30;99.90;;;;;;6155851;23;20169;-49
2022/11/18 00:43:32;;;;;;;6.97;2.40;;;8.30;99.90;;;;;;6156235;23;20467;-48
2022/11/18 00:45:57;;;;;;;9.53;2.17;;;8.30;99.90;;;;;;6155932;23;20164;-48
2022/11/18 00:48:24;;;;;;;5.43;1.80;;;8.30;99.90;;;;;;6155891;23;20261;-48
2022/11/18 00:50:54;;;;;;;5.37;1.63;;;8.30;99.90;;;;;;6156043;23;20160;-49
2022/11/18 00:53:22;;;;;;;5.20;2.07;;;8.30;99.90;;;;;;6156050;23;20153;-48
2022/11/18 00:55:47;;;;;;;4.20;2.00;;;8.20;99.90;;;;;;6156188;23;20162;-49
2022/11/18 00:58:14;;;;;;;4.10;2.03;;;8.20;99.90;;;;;;6156135;23;20208;-47
2022/11/18 01:00:44;;;;;;;4.87;2.13;;;8.20;99.90;;;;;;6156026;23;20227;-47
2022/11/18 01:03:10;;;;;;;2.87;1.97;;;8.20;99.90;;;;;;6155881;23;20138;-48
2022/11/18 01:05:37;;;;;;;6.13;2.37;;;8.20;99.90;;;;;;6155771;23;20164;-47
2022/11/18 01:08:03;;;;;;;4.03;1.90;;;8.10;99.90;;;;;;6155663;23;20173;-46
2022/11/18 01:10:28;;;;;;;3.30;2.10;;;8.10;99.90;;;;;;6156093;23;20498;-49
2022/11/18 01:15:43;;;;;;;6.03;2.30;;;8.00;99.90;;;;;;6155885;23;20157;-49
2022/11/18 01:18:09;;;;;;;5.37;2.27;;;8.00;99.90;;;;;;6155974;23;20220;-49
2022/11/18 01:20:35;;;;;;;7.30;3.03;;;8.00;99.90;;;;;;6156036;23;20189;-49
2022/11/18 01:23:01;;;;;;;6.33;2.17;;;7.90;99.90;;;;;;6156206;23;20599;-48
2022/11/18 01:25:27;;;;;;;4.80;1.90;;;7.90;99.90;;;;;;6156118;23;20212;-48
2022/11/18 01:27:53;;;;;;;7.13;2.10;;;7.90;99.90;;;;;;6155757;23;20212;-49
2022/11/18 01:30:18;;;;;;;5.37;2.27;;;7.90;99.90;;;;;;6155892;23;20154;-48
2022/11/18 01:32:44;;;;;;;4.33;1.73;;;7.90;99.90;;;;;;6157685;23;20662;-50
2022/11/18 01:35:10;;;;;;;4.33;2.00;;;7.90;99.90;;;;;;6157841;23;20153;-47
2022/11/18 01:37:37;;;;;;;4.87;2.23;;;7.90;99.90;;;;;;6157842;23;20165;-49
2022/11/18 01:40:04;;;;;;;6.00;1.93;;;7.90;99.90;;;;;;6158250;23;20189;-47
2022/11/18 01:42:30;;;;;;;3.60;1.97;;;7.90;99.90;;;;;;6158003;23;20153;-47
2022/11/18 01:45:18;;;;;;;4.87;1.80;;;7.90;99.90;;;;;;6157644;23;20208;-49
2022/11/18 01:47:49;;;;;;;5.83;1.93;;;7.90;99.90;;;;;;6157566;23;20177;-48
2022/11/18 01:50:18;;;;;;;7.13;1.87;;;7.90;99.90;;;;;;6157851;23;20146;-49
2022/11/18 01:52:44;;;;;;;7.63;1.80;;;7.90;99.90;;;;;;6157401;23;20173;-48
2022/11/18 01:55:13;;;;;;;3.20;1.90;;;7.90;99.90;;;;;;6157734;23;20165;-49
2022/11/18 01:57:40;;;;;;;8.13;2.20;;;7.90;99.90;;;;;;6157624;23;20232;-49
2022/11/18 02:00:06;;;;;;;4.00;1.63;;;7.90;99.90;;;;;;6157667;23;20189;-47
2022/11/18 02:02:35;;;;;;;4.30;2.00;;;7.80;99.90;;;;;;6157694;23;20516;-48
2022/11/18 02:05:03;;;;;;;4.40;1.80;;;7.80;99.90;;;;;;6157889;23;20242;-47
2022/11/18 02:07:30;;;;;;;3.90;2.10;;;7.80;99.90;;;;;;6157129;23;20161;-49
2022/11/18 02:09:58;;;;;;;4.37;1.87;;;7.80;99.90;;;;;;6158027;23;20157;-47
2022/11/18 02:12:24;;;;;;;7.17;2.17;;;7.70;99.90;;;;;;6157526;23;20160;-47
2022/11/18 02:14:50;;;;;;;4.57;1.77;;;7.70;99.90;;;;;;6157843;23;20158;-47
2022/11/18 02:17:42;;;;;;;6.00;2.00;;;7.70;99.90;;;;;;6157490;23;20157;-48
2022/11/18 02:20:08;;;;;;;6.17;1.80;;;7.60;99.90;;;;;;6157628;23;20174;-48
2022/11/18 02:23:15;;;;;;;2.43;1.63;;;7.60;99.90;;;;;;6158746;23;20233;-50
2022/11/18 02:26:22;;;;;;;6.63;2.00;;;7.60;99.90;;;;;;6157487;23;20572;-50
2022/11/18 02:29:06;;;;;;;4.50;1.73;;;7.50;99.90;;;;;;6157258;23;20180;-48
2022/11/18 02:31:40;;;;;;;5.87;1.80;;;7.50;99.90;;;;;;6157927;23;20157;-48
2022/11/18 02:34:44;;;;;;;2.53;1.63;;;7.50;99.90;;;;;;6158120;23;20148;-47
2022/11/18 02:37:20;;;;;;;4.63;2.00;;;7.40;99.90;;;;;;6087704;23;20232;-48
2022/11/18 02:39:58;;;;;;;3.73;1.80;;;7.40;99.90;;;;;;6157181;23;20173;-49
2022/11/18 02:42:28;;;;;;;2.93;1.80;;;7.30;99.90;;;;;;6156776;23;20486;-49
2022/11/18 02:44:59;;;;;;;8.97;1.90;;;7.30;99.90;;;;;;6157038;23;20158;-49
2022/11/18 02:47:27;;;;;;;6.53;2.00;;;7.30;99.90;;;;;;6156865;23;20228;-49
2022/11/18 02:49:59;;;;;;;5.47;2.17;;;7.30;99.90;;;;;;6157027;23;20161;-51
2022/11/18 02:52:26;;;;;;;3.97;2.00;;;7.20;99.90;;;;;;6156885;23;20252;-48
2022/11/18 02:54:54;;;;;;;5.30;2.10;;;7.20;99.90;;;;;;6157192;23;20174;-43
2022/11/18 02:57:21;;;;;;;2.40;1.70;;;7.20;99.90;;;;;;6156649;23;20189;-45
2022/11/18 02:59:47;;;;;;;4.77;1.97;;;7.20;99.90;;;;;;6156694;23;20184;-43
2022/11/18 03:02:18;;;;;;;4.60;1.70;;;7.20;99.90;;;;;;6157140;23;20158;-45
2022/11/18 03:04:46;;;;;;;5.27;2.00;;;7.20;99.90;;;;;;6157290;23;20225;-45
2022/11/18 03:07:26;;;;;;;6.43;2.03;;;7.20;99.90;;;;;;6156581;23;20165;-44
2022/11/18 03:09:53;;;;;;;8.97;2.17;;;7.20;99.90;;;;;;6130607;23;20147;-41
2022/11/18 03:12:42;;;;;;;4.60;1.60;;;7.20;99.90;;;;;;6156601;23;20212;-42
2022/11/18 03:15:20;;;;;;;4.17;1.83;;;7.20;99.90;;;;;;6156933;23;20161;-43
2022/11/18 03:17:52;;;;;;;3.77;2.13;;;7.20;99.90;;;;;;6156937;23;20678;-44
2022/11/18 03:20:41;;;;;;;6.20;2.63;;;7.20;99.90;;;;;;6156526;23;20175;-43
2022/11/18 03:23:15;;;;;;;3.47;2.00;;;7.20;99.90;;;;;;6156651;23;20228;-43
2022/11/18 03:25:50;;;;;;;5.03;2.17;;;7.20;99.90;;;;;;6156898;23;20148;-44
2022/11/18 03:28:34;;;;;;;7.93;2.33;;;7.20;99.90;;;;;;6156898;23;20565;-45
2022/11/18 03:31:10;;;;;;;6.20;2.60;;;7.20;99.90;;;;;;6156934;23;20142;-43
2022/11/18 03:33:42;;;;;;;5.67;2.23;;;7.30;99.90;;;;;;6156579;23;20220;-42
2022/11/18 03:36:11;;;;;;;8.33;2.20;;;7.30;99.90;;;;;;6156552;23;20192;-42
2022/11/18 03:38:46;;;;;;;6.30;2.93;;;7.30;99.90;;;;;;6130996;23;20188;-44
2022/11/18 03:41:15;;;;;;;9.33;2.67;;;7.40;99.90;;;;;;6156833;23;20180;-43
2022/11/18 03:43:50;;;;;;;5.83;2.60;;;7.40;99.90;;;;;;6156538;23;20146;-44
2022/11/18 03:46:29;;;;;;;7.73;2.80;;;7.40;99.90;;;;;;6156829;23;20141;-44
2022/11/18 03:48:56;;;;;;;3.40;2.43;;;7.50;99.90;;;;;;6157515;23;20187;-45
2022/11/18 03:51:28;;;;;;;5.43;2.07;;;7.50;99.90;;;;;;6156356;23;20259;-42
2022/11/18 03:54:02;;;;;;;3.07;2.33;;;7.50;99.90;;;;;;6156737;23;20472;-46
2022/11/18 03:56:37;;;;;;;3.57;2.07;;;7.50;99.90;;;;;;6156778;23;20142;-42
2022/11/18 03:59:11;;;;;;;5.70;2.40;;;7.50;99.90;;;;;;6156277;23;20184;-44
2022/11/18 04:01:50;;;;;;;3.33;1.70;;;7.50;99.90;;;;;;6156713;23;20149;-46
2022/11/18 04:04:16;;;;;;;4.20;1.40;;;7.60;99.90;;;;;;6156687;23;20145;-42
2022/11/18 04:06:45;;;;;;;4.10;2.27;;;7.60;99.90;;;;;;6156547;23;20219;-44
2022/11/18 04:09:17;;;;;;;7.20;2.63;;;7.70;99.90;;;;;;6156163;23;20184;-44
2022/11/18 04:12:03;;;;;;;3.87;1.80;;;7.70;99.90;;;;;;6156280;23;20153;-44
2022/11/18 04:14:38;;;;;;;3.57;1.60;;;7.80;99.90;;;;;;6156296;23;20589;-44
2022/11/18 04:17:16;;;;;;;7.33;1.97;;;7.80;99.90;;;;;;6156600;23;20281;-42
2022/11/18 04:19:42;;;;;;;5.70;1.90;;;7.80;99.90;;;;;;6156368;23;20184;-43
2022/11/18 04:22:09;;;;;;;4.90;1.80;;;7.80;99.90;;;;;;6156388;23;20160;-43
2022/11/18 04:24:35;;;;;;;7.63;1.87;;;7.90;99.90;;;;;;6130017;23;20157;-42
2022/11/18 04:27:01;;;;;;;6.43;1.70;;;7.90;99.90;;;;;;6156483;23;20164;-44
2022/11/18 04:29:28;;;;;;;3.77;1.60;;;7.90;99.90;;;;;;6156055;23;20184;-43
2022/11/18 04:31:53;;;;;;;3.77;1.50;;;7.80;99.90;;;;;;6156518;23;20158;-43
2022/11/18 04:34:19;;;;;;;5.07;1.70;;;7.90;99.90;;;;;;6131058;23;20162;-42
2022/11/18 04:36:44;;;;;;;3.87;1.87;;;7.90;99.90;;;;;;6130070;23;20554;-43
2022/11/18 04:39:10;;;;;;;7.60;1.90;;;7.80;99.90;;;;;;6155917;23;20181;-44
2022/11/18 04:41:54;;;;;;;6.37;1.90;;;7.90;99.90;;;;;;6156451;23;20150;-45
2022/11/18 04:44:21;;;;;;;2.40;1.50;;;7.90;99.90;;;;;;6156800;23;20138;-44
2022/11/18 04:46:47;;;;;;;7.33;1.83;;;7.90;99.90;;;;;;6156092;23;20241;-43
2022/11/18 04:49:14;;;;;;;3.90;1.93;;;7.90;99.90;;;;;;6155989;23;20583;-44
2022/11/18 04:51:43;;;;;;;4.90;1.40;;;7.80;99.90;;;;;;6156081;23;20173;-43
2022/11/18 04:54:09;;;;;;;5.03;1.60;;;7.90;99.90;;;;;;6155994;23;20157;-43
2022/11/18 04:56:35;;;;;;;4.87;2.10;;;7.90;99.90;;;;;;6156244;23;20161;-44
2022/11/18 04:59:03;;;;;;;2.20;1.60;;;7.90;99.90;;;;;;6155765;23;20239;-42
2022/11/18 05:01:29;;;;;;;6.90;1.57;;;7.90;99.90;;;;;;6156002;23;20228;-43
2022/11/18 05:03:55;;;;;;;4.33;1.90;;;7.90;99.90;;;;;;6156305;23;20153;-44
2022/11/18 05:06:21;;;;;;;5.00;1.67;;;7.90;99.90;;;;;;6156644;23;20154;-44
2022/11/18 05:08:46;;;;;;;3.53;2.00;;;7.90;99.90;;;;;;6158231;23;20256;-43
2022/11/18 05:13:55;;;;;;;4.10;1.67;;;7.90;99.90;;;;;;6158108;23;20188;-43
2022/11/18 05:16:21;;;;;;;2.60;1.43;;;7.90;99.90;;;;;;6158219;23;20154;-42
2022/11/18 05:18:47;;;;;;;6.00;1.77;;;7.90;99.90;;;;;;6157767;23;20615;-44
2022/11/18 05:21:12;;;;;;;4.57;1.77;;;7.90;99.90;;;;;;6157950;23;20150;-44
2022/11/18 05:23:38;;;;;;;6.17;1.60;;;7.90;99.90;;;;;;6158586;23;20182;-44
2022/11/18 05:26:05;;;;;;;5.27;1.90;;;7.90;99.90;;;;;;6157952;23;20154;-45
2022/11/18 05:28:31;;;;;;;4.03;1.67;;;7.90;99.90;;;;;;6158089;23;20181;-43
2022/11/18 05:30:56;;;;;;;3.57;1.70;;;7.90;99.90;;;;;;6158011;23;20501;-43
2022/11/18 05:33:22;;;;;;;4.93;1.80;;;7.90;99.90;;;;;;6157787;23;20498;-43
2022/11/18 05:35:48;;;;;;;4.33;1.80;;;7.90;99.90;;;;;;6158027;23;20670;-44
2022/11/18 05:38:13;;;;;;;7.07;1.90;;;7.90;99.90;;;;;;6157752;23;20181;-44
2022/11/18 05:40:41;;;;;;;5.77;1.87;;;7.90;99.90;;;;;;6158260;23;20174;-44
2022/11/18 05:43:11;;;;;;;6.43;1.93;;;7.90;99.90;;;;;;6157925;23;20245;-43
2022/11/18 05:45:38;;;;;;;5.40;1.97;;;7.90;99.90;;;;;;6158029;23;20592;-46
2022/11/18 05:48:12;;;;;;;6.20;1.73;;;7.90;99.90;;;;;;6157656;23;20180;-45
2022/11/18 05:50:37;;;;;;;6.47;2.10;;;7.90;99.90;;;;;;6157676;23;20165;-44
2022/11/18 05:53:04;;;;;;;6.13;1.40;;;7.90;99.90;;;;;;6157480;23;20173;-43
2022/11/18 05:55:59;;;;;;;3.93;1.87;;;7.90;99.90;;;;;;6132298;23;20173;-42
2022/11/18 05:58:24;;;;;;;2.87;1.50;;;7.90;99.90;;;;;;6157614;23;20260;-43
2022/11/18 06:00:54;;;;;;;3.47;1.73;;;7.90;99.90;;;;;;6157779;23;20209;-44
2022/11/18 06:03:25;;;;;;;3.10;1.77;;;7.90;99.90;;;;;;6157872;23;20154;-43
2022/11/18 06:05:54;;;;;;;4.37;1.73;;;7.90;99.90;;;;;;6157417;23;20146;-44
2022/11/18 06:08:20;;;;;;;5.87;1.67;;;7.90;99.90;;;;;;6157325;23;20304;-44
2022/11/18 06:10:47;;;;;;;3.83;1.83;;;7.90;99.90;;;;;;6157412;23;20158;-44
2022/11/18 06:13:18;;;;;;;3.70;1.60;;;7.90;99.90;;;;;;6157402;23;20157;-44
2022/11/18 06:15:44;;;;;;;5.57;2.57;;;7.90;99.90;;;;;;6157833;23;20568;-45
2022/11/18 06:18:28;;;;;;;4.63;2.43;;;7.90;99.90;;;;;;6157151;23;20177;-42
2022/11/18 06:21:03;;;;;;;4.70;2.40;;;7.90;99.90;;;;;;6157548;23;20173;-43
2022/11/18 06:23:33;;;;;;;6.13;2.27;;;7.90;99.90;;;;;;6158212;23;20153;-43
2022/11/18 06:25:59;;;;;;;5.50;2.17;;;8.00;99.90;;;;;;6157933;23;20146;-44
2022/11/18 06:28:26;;;;;;;7.27;2.27;;;8.00;99.90;;;;;;6157193;23;20260;-42
2022/11/18 06:30:52;;;;;;;4.03;2.00;;;8.00;99.90;;;;;;6131545;23;20160;-43
2022/11/18 06:33:17;;;;;;;5.10;2.13;;;8.00;99.90;;;;;;6157136;23;20164;-44
2022/11/18 06:35:43;;;;;;;4.37;2.20;;;8.00;99.90;;;;;;6157573;23;20153;-44
2022/11/18 06:38:08;;;;;;;5.80;2.07;;;8.00;99.90;;;;;;6157009;23;20651;-44
2022/11/18 06:40:36;;;;;;;8.33;1.87;;;8.00;99.90;;;;;;6157044;23;20184;-43
2022/11/18 06:48:41;;;;;;;4.30;2.20;;;7.90;99.90;;;;;;6157059;23;20212;-44
2022/11/18 06:51:07;;;;;;;3.80;1.97;;;7.90;99.90;;;;;;6157127;23;20165;-43
2022/11/18 06:53:34;;;;;;;7.53;2.33;;;7.80;99.90;;;;;;6157168;23;20138;-44
2022/11/18 06:56:08;;;;;;;5.67;1.60;;;7.80;99.90;;;;;;6157337;23;20228;-43
2022/11/18 06:58:34;;;;;;;5.93;2.70;;;7.70;99.90;;;;;;6157412;23;20559;-45
2022/11/18 07:01:17;;;;;;;8.10;2.30;;;7.70;99.90;;;;;;6157190;23;20213;-44
2022/11/18 07:03:45;;;;;;;4.53;1.93;;;7.70;99.90;;;;;;6157121;23;20575;-45
2022/11/18 07:06:12;;;;;;;4.63;2.30;;;7.70;99.90;;;;;;6156885;23;20225;-45
2022/11/18 07:08:39;;;;;;;4.43;2.17;;;7.60;99.90;;;;;;6157049;23;20185;-44
2022/11/18 07:11:07;;;;;;;5.40;2.23;;;7.60;99.90;;;;;;6157620;23;20232;-44
2022/11/18 07:14:01;;;;;;;4.40;2.60;;;7.60;99.90;;;;;;6157400;23;20157;-44
2022/11/18 07:16:27;;;;;;;4.27;2.30;;;7.60;99.90;;;;;;6156664;23;20610;-43
2022/11/18 07:18:54;;;;;;;4.03;2.00;;;7.60;99.90;;;;;;6156938;23;20180;-44
2022/11/18 07:21:25;;;;;;;4.43;2.20;;;7.60;99.90;;;;;;6156887;23;20154;-45
2022/11/18 07:23:51;;;;;;;5.60;2.60;;;7.60;99.90;;;;;;6156685;23;20247;-44
2022/11/18 07:26:17;;;;;;;8.23;2.40;;;7.60;99.90;;;;;;6156661;23;20165;-43
2022/11/18 07:28:43;;;;;;;6.23;2.83;;;7.60;99.90;;;;;;6156339;23;20180;-43
2022/11/18 07:31:11;;;;;;;4.80;2.00;;;7.50;99.90;;;;;;6130723;23;20153;-46
2022/11/18 07:33:38;;;;;;;7.37;2.60;;;7.50;99.90;;;;;;6156557;23;20231;-43
2022/11/18 07:36:09;;;;;;;5.03;2.47;;;7.50;99.90;;;;;;6156948;23;20486;-44
2022/11/18 07:38:36;;;;;;;3.57;2.10;;;7.50;99.90;;;;;;6156948;23;20193;-44
2022/11/18 07:41:06;;;;;;;3.73;2.30;;;7.40;99.90;;;;;;6156746;23;20216;-43
2022/11/18 07:43:34;;;;;;;5.93;2.27;;;7.40;99.90;;;;;;6156500;23;20236;-44
2022/11/18 07:46:15;;;;;;;4.73;2.47;;;7.40;99.90;;;;;;6156829;23;20153;-43
2022/11/18 07:48:41;;;;;;;6.47;2.60;;;7.30;99.90;;;;;;6156751;23;20662;-44
2022/11/18 07:51:07;;;;;;;10.03;2.70;;;7.30;99.90;;;;;;6130177;23;20227;-45
2022/11/18 07:53:33;;;;;;;3.67;2.23;;;7.30;99.90;;;;;;6157115;23;20157;-44
2022/11/18 07:55:59;;;;;;;5.73;2.47;;;7.30;99.90;;;;;;6156354;23;20164;-44
2022/11/18 07:58:25;;;;;;;5.90;2.37;;;7.30;99.90;;;;;;6156332;23;20492;-45
2022/11/18 08:00:51;;;;;;;4.40;2.47;;;7.20;99.90;;;;;;6156719;23;20174;-44
2022/11/18 08:03:16;;;;;;;8.30;2.20;;;7.30;99.90;;;;;;6156714;23;20161;-45
2022/11/18 08:05:42;;;;;;;3.67;2.13;;;7.30;99.90;;;;;;6156526;23;20154;-43
2022/11/18 08:08:09;;;;;;;4.63;2.30;;;7.30;99.90;;;;;;6156661;23;20174;-43
2022/11/18 08:10:35;;;;;;;7.87;2.30;;;7.30;99.90;;;;;;6156357;23;20239;-46
2022/11/18 08:13:01;;;;;;;5.33;2.53;;;7.40;99.90;;;;;;6156274;23;20164;-44
2022/11/18 08:15:26;;;;;;;6.43;2.60;;;7.40;99.90;;;;;;6156299;23;20176;-45
2022/11/18 08:17:52;;;;;;;8.70;2.57;;;7.40;99.90;;;;;;6130164;23;20643;-44
2022/11/18 08:20:17;;;;;;;6.23;2.60;;;7.40;99.90;;;;;;6156129;23;20184;-44
2022/11/18 08:22:43;;;;;;;6.53;2.50;;;7.40;99.90;;;;;;6156516;23;20201;-43
2022/11/18 08:25:09;;;;;;;5.57;2.60;;;7.40;99.90;;;;;;6156470;23;20203;-45
2022/11/18 08:27:34;;;;;;;6.70;2.77;;;7.40;99.90;;;;;;6156538;23;20185;-43
2022/11/18 08:30:00;;;;;;;9.73;2.60;;;7.40;99.90;;;;;;6156098;23;20177;-44
2022/11/18 08:32:26;;;;;;;5.77;2.17;;;7.50;99.90;;;;;;6156548;23;20142;-44
2022/11/18 08:34:51;;;;;;;7.03;2.30;;;7.50;99.90;;;;;;6156097;23;20184;-43
2022/11/18 08:37:17;;;;;;;5.57;2.90;;;7.60;99.90;;;;;;6130132;23;20166;-45
2022/11/18 08:39:43;;;;;;;6.20;2.57;;;7.60;99.90;;;;;;6155944;23;20181;-45
2022/11/18 08:42:09;;;;;;;8.73;2.43;;;7.70;99.90;;;;;;6155891;23;20156;-43
2022/11/18 08:44:35;;;;;;;4.63;2.90;;;7.80;99.90;;;;;;6156961;23;20157;-43
2022/11/18 08:47:01;;;;;;;4.90;2.77;;;7.80;99.90;;;;;;6156734;23;20160;-44
2022/11/18 08:49:27;;;;;;;5.27;2.50;;;7.90;99.90;;;;;;6156094;23;20177;-44
2022/11/18 08:51:53;;;;;;;6.83;3.20;;;8.00;99.90;;;;;;6130107;23;20235;-46
2022/11/18 08:54:19;;;;;;;4.43;2.40;;;8.10;99.90;;;;;;6155863;23;20169;-45
2022/11/18 08:56:44;;;;;;;12.10;3.10;;;8.20;99.90;;;;;;6155976;23;20165;-44
2022/11/18 08:59:12;;;;;;;9.83;2.67;;;8.30;99.90;;;;;;6156066;23;20189;-46
2022/11/18 09:01:40;;;;;;;6.60;2.03;;;8.40;99.90;;;;;;6156312;23;20164;-43
2022/11/18 09:04:06;;;;;;;8.57;2.77;;;8.50;99.90;;;;;;6156245;23;20230;-44
2022/11/18 09:06:33;;;;;;;6.83;1.97;;;8.60;99.90;;;;;;6155920;23;20149;-43
2022/11/18 09:08:59;;;;;;;4.37;2.40;;;8.70;99.90;;;;;;6155925;23;20174;-43
2022/11/18 09:11:27;;;;;;;5.33;2.73;;;8.70;99.90;;;;;;6155888;23;20489;-44
2022/11/18 09:13:57;;;;;;;6.07;2.40;;;8.80;99.90;;;;;;6155842;23;20233;-42
2022/11/18 09:16:27;;;;;;;9.93;2.97;;;8.90;99.90;;;;;;6156012;23;20535;-48
2022/11/18 09:18:55;;;;;;;8.27;1.70;;;9.00;99.90;;;;;;6155658;23;20177;-49
2022/11/18 09:21:20;;;;;;;7.70;2.40;;;9.20;99.90;;;;;;6155824;23;20596;-49
2022/11/18 09:23:46;;;;;;;12.27;1.90;;;9.20;99.90;;;;;;6129802;23;20197;-50
2022/11/18 09:26:15;;;;;;;4.27;1.77;;;9.30;99.90;;;;;;6155842;23;20181;-47
2022/11/18 09:28:41;;;;;;;5.57;1.77;;;9.40;99.90;;;;;;6155797;23;20178;-48
2022/11/18 09:31:12;;;;;;;10.97;2.47;;;9.50;99.90;;;;;;6129670;23;20169;-50
2022/11/18 09:33:38;;;;;;;9.73;2.23;;;9.60;99.90;;;;;;6156082;23;20177;-50
2022/11/18 09:36:10;;;;;;;2.87;1.63;;;9.70;99.90;;;;;;6155732;23;20648;-48
2022/11/18 09:38:35;;;;;;;4.47;1.67;;;9.70;99.90;;;;;;6156233;23;20260;-50
2022/11/18 09:41:13;;;;;;;5.67;1.70;;;9.80;99.90;;;;;;6156061;23;20545;-50
2022/11/18 09:44:04;;;;;;;7.70;1.77;;;9.90;99.90;;;;;;6129739;23;20150;-50
2022/11/18 09:46:39;;;;;;;13.67;2.30;;;10.00;99.90;;;;;;6156054;23;20165;-49
2022/11/18 09:49:14;;;;;;;8.37;1.93;;;10.00;99.90;;;;;;6129609;23;20667;-48
2022/11/18 09:51:43;;;;;;;7.40;1.90;;;10.10;99.90;;;;;;6155795;23;20177;-50
2022/11/18 09:54:12;;;;;;;6.97;1.90;;;10.20;99.90;;;;;;6131321;23;20166;-51
2022/11/18 09:56:39;;;;;;;8.77;2.30;;;10.30;99.90;;;;;;6157929;23;20163;-50
2022/11/18 09:59:05;;;;;;;7.50;1.47;;;10.30;99.90;;;;;;6157289;23;20185;-50
2022/11/18 10:01:31;;;;;;;5.63;1.93;;;10.30;99.90;;;;;;6158127;23;20532;-50
2022/11/18 10:03:56;;;;;;;5.87;2.13;;;10.40;99.90;;;;;;6157453;23;20161;-51
2022/11/18 10:06:31;;;;;;;7.23;1.90;;;10.40;99.90;;;;;;6131258;23;20263;-51
2022/11/18 10:09:17;;;;;;;6.03;1.63;;;10.50;99.90;;;;;;6157287;23;20195;-50
2022/11/18 10:11:55;;;;;;;3.23;1.67;;;10.50;99.90;;;;;;6157469;23;20145;-50
2022/11/18 10:14:52;;;;;;;3.80;1.43;;;10.60;99.90;;;;;;6157845;23;20199;-50
2022/11/18 10:17:30;;;;;;;7.20;1.37;;;10.70;99.90;;;;;;6158193;23;20621;-51
2022/11/18 10:20:20;;;;;;;5.60;1.37;;;10.80;99.90;;;;;;6158075;23;20169;-50
2022/11/18 10:22:56;;;;;;;6.00;1.87;;;10.80;99.90;;;;;;6157751;23;20154;-50
2022/11/18 10:25:22;;;;;;;9.13;1.90;;;10.90;99.90;;;;;;6157856;23;20157;-50
2022/11/18 10:27:49;;;;;;;5.10;1.83;;;10.90;99.90;;;;;;6157290;23;20177;-49
2022/11/18 10:30:21;;;;;;;7.10;2.10;;;11.00;99.90;;;;;;6131072;23;20599;-49
2022/11/18 10:33:15;;;;;;;2.70;1.77;;;11.00;99.90;;;;;;6157338;23;20149;-50
2022/11/18 10:35:41;;;;;;;3.83;1.80;;;11.10;99.90;;;;;;6157490;23;20236;-50
2022/11/18 10:38:18;;;;;;;7.47;2.70;;;11.00;99.90;;;;;;6157266;23;20219;-50
2022/11/18 10:41:00;;;;;;;3.87;1.63;;;11.00;99.90;;;;;;6157346;23;20175;-50
2022/11/18 10:43:53;;;;;;;5.73;2.20;;;11.10;99.90;;;;;;6157127;23;20590;-49
2022/11/18 10:46:26;;;;;;;3.20;1.57;;;11.10;99.90;;;;;;6157368;23;20153;-51
2022/11/18 10:49:10;;;;;;;6.83;1.70;;;11.20;99.90;;;;;;6157040;23;20204;-49
2022/11/18 10:51:41;;;;;;;5.47;1.43;;;11.10;99.90;;;;;;6156997;23;20170;-50
2022/11/18 10:54:28;;;;;;;5.30;1.70;;;11.10;99.90;;;;;;6157273;23;20495;-49
2022/11/18 10:57:05;;;;;;;4.97;1.50;;;11.00;99.90;;;;;;6156538;23;20157;-50
2022/11/18 10:59:45;;;;;;;5.93;1.73;;;10.90;99.90;;;;;;6130734;23;20651;-50
2022/11/18 11:02:33;;;;;;;6.07;1.93;;;10.80;99.90;;;;;;6157316;23;20142;-48
2022/11/18 11:05:02;;;;;;;5.90;1.80;;;10.80;99.90;;;;;;6156310;23;20666;-48
2022/11/18 11:07:34;;;;;;;5.60;1.53;;;10.70;99.90;;;;;;6157481;23;20185;-48
2022/11/18 11:10:01;;;;;;;8.30;1.87;;;10.70;99.90;;;;;;6156660;23;20584;-49
2022/11/18 11:12:36;;;;;;;10.17;1.60;;;10.60;99.90;;;;;;6130636;23;20197;-50
2022/11/18 11:15:30;;;;;;;4.67;1.43;;;10.60;99.90;;;;;;6157004;23;20240;-50
2022/11/18 11:20:53;;;;;;;4.30;1.20;;;10.50;99.90;;;;;;6157079;23;20213;-50
2022/11/18 11:23:19;;;;;;;4.40;1.60;;;10.50;99.90;;;;;;6156821;23;20161;-50
2022/11/18 11:26:02;;;;;;;3.93;1.57;;;10.50;99.90;;;;;;6156985;23;20212;-49
2022/11/18 11:28:33;;;;;;;4.57;1.30;;;10.50;99.90;;;;;;6156695;23;20197;-51
2022/11/18 11:31:05;;;;;;;4.50;1.50;;;10.50;99.90;;;;;;6157386;23;20154;-48
2022/11/18 11:33:42;;;;;;;9.30;1.50;;;10.50;99.90;;;;;;6156662;23;20555;-48
2022/11/18 11:36:28;;;;;;;7.20;1.83;;;10.50;99.90;;;;;;6132997;23;20146;-50
2022/11/18 11:39:18;;;;;;;4.87;1.40;;;10.50;99.90;;;;;;6157180;23;20177;-50
2022/11/18 11:42:00;;;;;;;6.40;1.50;;;10.60;99.90;;;;;;6157221;23;20575;-48
2022/11/18 11:44:49;;;;;;;3.83;1.23;;;10.60;99.90;;;;;;6156518;23;20138;-50
2022/11/18 11:47:46;;;;;;;8.13;2.50;;;10.70;99.90;;;;;;6141676;23;20161;-48
2022/11/18 11:50:52;;;;;;;4.73;1.60;;;10.70;99.90;;;;;;6156886;23;20214;-50
2022/11/18 11:53:30;;;;;;;7.43;1.70;;;10.70;99.90;;;;;;6156514;23;20165;-50
2022/11/18 11:56:27;;;;;;;8.57;2.00;;;10.80;99.90;;;;;;6157231;23;20173;-49
2022/11/18 12:02:51;;;;;;;8.67;1.93;;;11.00;99.90;;;;;;6157593;23;20240;-49
2022/11/18 12:05:33;;;;;;;6.27;2.90;;;11.10;99.90;;;;;;6156465;23;20149;-49
2022/11/18 12:08:04;;;;;;;5.73;1.93;;;11.30;99.90;;;;;;6156625;23;20181;-51
2022/11/18 12:10:54;;;;;;;5.47;1.70;;;11.40;99.90;;;;;;6156398;23;20254;-48
2022/11/18 12:13:26;;;;;;;6.23;1.83;;;11.50;99.90;;;;;;6156422;23;20221;-48
2022/11/18 12:16:28;;;;;;;2.70;1.33;;;11.50;99.90;;;;;;6156594;23;20145;-50
2022/11/18 12:19:07;;;;;;;8.07;1.30;;;11.60;99.90;;;;;;6156511;23;20177;-50
2022/11/18 12:21:44;;;;;;;5.90;1.63;;;11.60;99.90;;;;;;6156276;23;20192;-49
2022/11/18 12:24:23;;;;;;;7.80;1.73;;;11.60;99.90;;;;;;6156864;23;20153;-50
2022/11/18 12:26:49;;;;;;;5.27;1.70;;;11.60;99.90;;;;;;6156482;23;20632;-49
2022/11/18 12:29:17;;;;;;;7.40;1.73;;;11.60;99.90;;;;;;6156387;23;20538;-51
2022/11/18 12:31:49;;;;;;;6.73;2.13;;;11.60;99.90;;;;;;6156560;23;20519;-51
2022/11/18 12:34:38;;;;;;;4.77;1.60;;;11.70;99.90;;;;;;6156394;23;20476;-49
2022/11/18 12:37:24;;;;;;;6.83;1.60;;;11.70;99.90;;;;;;6156383;23;20146;-51
2022/11/18 12:39:55;;;;;;;6.97;1.70;;;11.80;99.90;;;;;;6156241;23;20260;-50
2022/11/18 12:45:40;;;;;;;7.57;2.00;;;11.90;99.90;;;;;;6106715;23;20208;-50
2022/11/18 12:48:29;;;;;;;8.27;1.93;;;12.00;99.90;;;;;;6156725;23;20173;-50
2022/11/18 12:50:57;;;;;;;5.50;1.50;;;12.00;99.90;;;;;;6156259;23;20177;-50
2022/11/18 12:53:31;;;;;;;6.87;1.63;;;12.10;99.90;;;;;;6156558;23;20154;-50
2022/11/18 12:55:57;;;;;;;8.20;1.70;;;12.10;99.90;;;;;;6156225;23;20199;-49
2022/11/18 12:58:24;;;;;;;7.40;1.70;;;12.10;99.90;;;;;;6156121;23;20188;-50
2022/11/18 13:00:52;;;;;;;10.60;2.97;;;12.20;99.90;;;;;;6156170;23;20631;-50
2022/11/18 13:03:27;;;;;;;7.03;1.50;;;12.10;99.90;;;;;;6155816;23;20165;-49
2022/11/18 13:06:04;;;;;;;6.53;1.70;;;12.20;99.90;;;;;;6156324;23;20156;-50
2022/11/18 13:08:30;;;;;;;6.60;1.67;;;12.10;99.90;;;;;;6156208;23;20178;-51
2022/11/18 13:19:31;;;;;;;4.13;1.50;;;12.30;99.90;;;;;;6155805;23;20202;-52
2022/11/18 13:24:51;;;;;;;6.47;1.93;;;12.30;99.90;;;;;;6156249;23;20525;-49
2022/11/18 13:27:34;;;;;;;6.80;1.70;;;12.30;99.90;;;;;;6156362;23;20239;-51
2022/11/18 13:30:08;;;;;;;4.60;1.60;;;12.30;99.90;;;;;;6157825;23;20165;-50
2022/11/18 13:32:34;;;;;;;5.90;1.60;;;12.20;99.90;;;;;;6158107;23;20149;-53
2022/11/18 13:35:22;;;;;;;7.20;1.60;;;12.20;99.90;;;;;;6157982;23;20600;-51
2022/11/18 13:37:53;;;;;;;7.63;1.80;;;12.20;99.90;;;;;;6132332;23;20178;-49
2022/11/18 13:40:26;;;;;;;5.30;2.20;;;12.20;99.90;;;;;;6158597;23;20307;-51
2022/11/18 13:42:52;;;;;;;7.37;1.70;;;12.20;99.90;;;;;;6158415;23;20160;-51
2022/11/18 13:45:19;;;;;;;5.50;1.90;;;12.20;99.90;;;;;;6158402;23;20232;-50
2022/11/18 13:47:49;;;;;;;5.50;1.63;;;12.30;99.90;;;;;;6159856;23;20169;-51
2022/11/18 13:50:38;;;;;;;5.00;1.73;;;12.30;99.90;;;;;;6158193;23;20172;-51